LICGLICD

Guest
Details From LICG - PANTELLERIA
To LICD - LAMPEDUSA
Flight Number -
Tags generated
Created
Modified
Stats Distance 85 nm / 158 km
Max Altitude 7,200 ft / 2,195 m
Waypoints 4
Social Downloads 0
Likes 0
Share VATSIM

Download

Looking for another format? Having issues loading an existing format? Contact us
Advertisement - Login to hide

Notes

Basic altitude profile: - Ascent Rate: 2500ft/min - Ascent Speed: 250kts - Cruise Altitude: 35000ft - Cruise Speed: 420kts - Descent Rate: 1500ft/min - Descent Speed: 250kts Options: - Use NATs: yes - Use PACOTS: yes - Use low airways: yes - Use high airways: no

Route

LICG DOBIX M740 VERAK LICD

ID Type Via Altitude Latitude Longitude Leg Dist Tot Dist Heading (true) Name
O LICG APT - 0 ft / 0 m 36.81438˚ 11.96623˚ - 0 nm - PANTELLERIA
DOBIX FIX - 7,200 ft / 2,195 m 36.50000˚ 12.12667˚ 20 nm 20 nm 158° / 158° -
VERAK FIX M740 (AWY-LO) 6,500 ft / 1,981 m 35.90500˚ 12.42833˚ 38 nm 59 nm 158° / 158° -
O LICD APT - 0 ft / 0 m 35.49797˚ 12.61808˚ 26 nm 85 nm 159° / 159° LAMPEDUSA

Altitude Profile

Advertisement - Login to hide

LICG

Details ICAO LICG (PNL)
Name PANTELLERIA
Region Italy
Timezone Europe/Rome (UTC+1.0)
Stats Elevation 635 ft / 194 m (AMSL)
Location 36.814378° 11.966227°
Runways 2
Magnetic Variation 2.689° E

METAR

LICG 141555Z 23009KT 9999 FEW015 14/12 Q1020 RMK FEW VIS MIN 9999 WIND THR08 /////KT WIND THR21 24009KT BLU

Decode

TAF

Not found

Departure Runways

ID Width Length Bearing (true) Bearing (mag) Surface Threshold Offset Overrun Length
03 98 ft / 30 m 4,044 ft / 1,233 m 27.69° 25.00° Asphalt 0 ft / 0 m 0 ft / 0 m
08 148 ft / 45 m 5,449 ft / 1,661 m 76.32° 73.63° Asphalt 0 ft / 0 m 0 ft / 0 m
21 98 ft / 30 m 4,044 ft / 1,233 m 207.69° 205.00° Asphalt 0 ft / 0 m 0 ft / 0 m
26 148 ft / 45 m 5,449 ft / 1,661 m 256.33° 253.64° Asphalt 0 ft / 0 m 0 ft / 0 m

LICD

Details ICAO LICD (LMP)
Name LAMPEDUSA
Region Italy
Timezone Europe/Rome (UTC+1.0)
Stats Elevation 70 ft / 21 m (AMSL)
Location 35.497966° 12.618077°
Runways 1
Magnetic Variation 2.714° E

METAR

LICD 141550Z 21009KT 9999 FEW020 17/12 Q1021

Decode

TAF

TAF TAF LICD 141100Z 1412/1512 22014KT 9999 FEW020

Decode

Destination Runways

ID Width Length Bearing (true) Bearing (mag) Surface Threshold Offset Overrun Length
08 148 ft / 45 m 5,897 ft / 1,797 m 80.57° 77.86° Asphalt 0 ft / 0 m 0 ft / 0 m
26 148 ft / 45 m 5,897 ft / 1,797 m 260.59° 257.88° Asphalt 0 ft / 0 m 0 ft / 0 m

Approach Navaids

Runway Type Ident Frequency Range Bearing (true) Bearing (mag) Slope Elevation
26 Localiser ILMA 111.30 MHz 20 nm / 37 km 260.60° 257.89° - 70 ft / 21 m (AMSL)
26 DME ILMA 111.30 MHz 25 nm / 46 km - - - 70 ft / 21 m (AMSL)

Popular Alternatives